sensor_id;sensor_type;location;lat;lon;timestamp;P1;durP1;ratioP1;P2;durP2;ratioP2
12373;SDS011;6251;51.762;8.660;2022-10-12T04:07:06;2.83;;;2.63;;
12373;SDS011;6251;51.762;8.660;2022-10-12T04:17:07;3.83;;;2.67;;
12373;SDS011;6251;51.762;8.660;2022-10-12T04:27:07;2.97;;;2.50;;
12373;SDS011;6251;51.762;8.660;2022-10-12T04:37:08;12.97;;;7.87;;
12373;SDS011;6251;51.762;8.660;2022-10-12T04:47:08;34.73;;;15.63;;
12373;SDS011;6251;51.762;8.660;2022-10-12T04:57:09;14.23;;;7.03;;
12373;SDS011;6251;51.762;8.660;2022-10-12T05:07:10;11.20;;;6.10;;
12373;SDS011;6251;51.762;8.660;2022-10-12T05:17:10;6.10;;;4.03;;
12373;SDS011;6251;51.762;8.660;2022-10-12T05:27:11;13.33;;;6.83;;
12373;SDS011;6251;51.762;8.660;2022-10-12T05:37:11;9.03;;;4.77;;
12373;SDS011;6251;51.762;8.660;2022-10-12T05:47:12;3.93;;;3.53;;
12373;SDS011;6251;51.762;8.660;2022-10-12T05:57:13;6.37;;;4.63;;
12373;SDS011;6251;51.762;8.660;2022-10-12T06:07:14;6.53;;;3.97;;
12373;SDS011;6251;51.762;8.660;2022-10-12T06:17:15;5.87;;;3.80;;
12373;SDS011;6251;51.762;8.660;2022-10-12T06:27:15;5.00;;;3.90;;
12373;SDS011;6251;51.762;8.660;2022-10-12T06:37:18;3.17;;;2.60;;
12373;SDS011;6251;51.762;8.660;2022-10-12T06:47:19;2.93;;;2.43;;
12373;SDS011;6251;51.762;8.660;2022-10-12T06:57:19;4.27;;;3.30;;
12373;SDS011;6251;51.762;8.660;2022-10-12T07:07:20;3.10;;;2.77;;
12373;SDS011;6251;51.762;8.660;2022-10-12T07:17:21;2.57;;;2.30;;
12373;SDS011;6251;51.762;8.660;2022-10-12T07:27:21;3.20;;;2.90;;
12373;SDS011;6251;51.762;8.660;2022-10-12T07:37:22;6.07;;;3.30;;
12373;SDS011;6251;51.762;8.660;2022-10-12T07:47:22;5.57;;;3.40;;
12373;SDS011;6251;51.762;8.660;2022-10-12T07:57:23;6.57;;;3.42;;
12373;SDS011;6251;51.762;8.660;2022-10-12T08:07:24;6.20;;;3.87;;
12373;SDS011;6251;51.762;8.660;2022-10-12T08:17:24;7.25;;;4.60;;
12373;SDS011;6251;51.762;8.660;2022-10-12T08:27:28;7.12;;;3.42;;
12373;SDS011;6251;51.762;8.660;2022-10-12T08:37:29;8.68;;;3.85;;
12373;SDS011;6251;51.762;8.660;2022-10-12T08:47:36;7.78;;;3.53;;
12373;SDS011;6251;51.762;8.660;2022-10-12T08:57:42;5.50;;;3.15;;
12373;SDS011;6251;51.762;8.660;2022-10-12T09:07:45;4.25;;;3.08;;
12373;SDS011;6251;51.762;8.660;2022-10-12T09:17:51;6.05;;;2.85;;
12373;SDS011;6251;51.762;8.660;2022-10-12T09:27:53;6.95;;;3.05;;
12373;SDS011;6251;51.762;8.660;2022-10-12T09:38:05;4.53;;;3.30;;
12373;SDS011;6251;51.762;8.660;2022-10-12T09:48:13;3.60;;;2.70;;
12373;SDS011;6251;51.762;8.660;2022-10-12T09:58:18;5.68;;;3.00;;
12373;SDS011;6251;51.762;8.660;2022-10-12T10:08:21;4.45;;;2.62;;
12373;SDS011;6251;51.762;8.660;2022-10-12T10:18:28;9.55;;;3.35;;
12373;SDS011;6251;51.762;8.660;2022-10-12T10:28:32;5.65;;;3.20;;
12373;SDS011;6251;51.762;8.660;2022-10-12T10:38:48;8.77;;;3.80;;
12373;SDS011;6251;51.762;8.660;2022-10-12T10:59:03;6.55;;;2.90;;
12373;SDS011;6251;51.762;8.660;2022-10-12T11:09:25;4.40;;;2.37;;
12373;SDS011;6251;51.762;8.660;2022-10-12T11:30:21;2.60;;;1.98;;
12373;SDS011;6251;51.762;8.660;2022-10-12T11:40:46;4.25;;;2.28;;
12373;SDS011;6251;51.762;8.660;2022-10-12T11:50:55;2.80;;;2.00;;
12373;SDS011;6251;51.762;8.660;2022-10-12T12:11:38;4.55;;;2.12;;
12373;SDS011;6251;51.762;8.660;2022-10-12T12:32:16;4.32;;;2.00;;
12373;SDS011;6251;51.762;8.660;2022-10-12T12:42:21;4.82;;;2.45;;
12373;SDS011;6251;51.762;8.660;2022-10-12T12:52:31;2.35;;;2.03;;
12373;SDS011;6251;51.762;8.660;2022-10-12T13:23:00;3.28;;;2.28;;
12373;SDS011;6251;51.762;8.660;2022-10-12T13:53:22;2.15;;;2.00;;
12373;SDS011;6251;51.762;8.660;2022-10-12T14:03:32;3.28;;;2.30;;
12373;SDS011;6251;51.762;8.660;2022-10-12T14:13:35;3.30;;;2.00;;
12373;SDS011;6251;51.762;8.660;2022-10-12T14:23:40;2.45;;;2.22;;
12373;SDS011;6251;51.762;8.660;2022-10-12T14:33:43;3.17;;;2.17;;
12373;SDS011;6251;51.762;8.660;2022-10-12T14:43:43;4.05;;;2.20;;
12373;SDS011;6251;51.762;8.660;2022-10-12T14:53:44;3.62;;;2.12;;
12373;SDS011;6251;51.762;8.660;2022-10-12T15:03:44;2.22;;;2.10;;
12373;SDS011;6251;51.762;8.660;2022-10-12T15:13:45;2.08;;;1.90;;
12373;SDS011;6251;51.762;8.660;2022-10-12T15:23:46;4.93;;;1.85;;
12373;SDS011;6251;51.762;8.660;2022-10-12T15:33:46;3.45;;;2.20;;
12373;SDS011;6251;51.762;8.660;2022-10-12T15:43:47;2.08;;;1.98;;
12373;SDS011;6251;51.762;8.660;2022-10-12T15:53:49;2.67;;;2.28;;
12373;SDS011;6251;51.762;8.660;2022-10-12T16:03:50;2.30;;;2.05;;
12373;SDS011;6251;51.762;8.660;2022-10-12T16:13:51;5.07;;;2.42;;
12373;SDS011;6251;51.762;8.660;2022-10-12T16:23:51;6.32;;;3.70;;
12373;SDS011;6251;51.762;8.660;2022-10-12T16:33:52;4.20;;;3.90;;
12373;SDS011;6251;51.762;8.660;2022-10-12T16:43:53;3.67;;;3.28;;
12373;SDS011;6251;51.762;8.660;2022-10-12T16:53:53;6.72;;;4.93;;
12373;SDS011;6251;51.762;8.660;2022-10-12T17:03:55;10.52;;;7.20;;
12373;SDS011;6251;51.762;8.660;2022-10-12T17:13:58;7.93;;;5.93;;
12373;SDS011;6251;51.762;8.660;2022-10-12T17:24:01;7.03;;;6.20;;
12373;SDS011;6251;51.762;8.660;2022-10-12T17:34:02;8.90;;;6.25;;
12373;SDS011;6251;51.762;8.660;2022-10-12T17:44:03;32.78;;;12.18;;
12373;SDS011;6251;51.762;8.660;2022-10-12T17:54:03;36.08;;;13.45;;
12373;SDS011;6251;51.762;8.660;2022-10-12T18:04:04;19.25;;;9.95;;
12373;SDS011;6251;51.762;8.660;2022-10-12T18:14:06;17.55;;;8.27;;
12373;SDS011;6251;51.762;8.660;2022-10-12T18:24:09;13.55;;;9.13;;
12373;SDS011;6251;51.762;8.660;2022-10-12T18:34:14;10.68;;;9.05;;
12373;SDS011;6251;51.762;8.660;2022-10-12T18:44:15;9.77;;;7.78;;
12373;SDS011;6251;51.762;8.660;2022-10-12T18:54:16;10.43;;;7.68;;
12373;SDS011;6251;51.762;8.660;2022-10-12T19:04:17;7.53;;;6.82;;
12373;SDS011;6251;51.762;8.660;2022-10-12T19:14:18;7.87;;;5.93;;
12373;SDS011;6251;51.762;8.660;2022-10-12T19:24:19;10.65;;;6.40;;
12373;SDS011;6251;51.762;8.660;2022-10-12T19:34:20;9.38;;;6.35;;
12373;SDS011;6251;51.762;8.660;2022-10-12T19:44:22;9.88;;;6.93;;
12373;SDS011;6251;51.762;8.660;2022-10-12T19:54:23;10.18;;;8.68;;
12373;SDS011;6251;51.762;8.660;2022-10-12T20:04:23;11.12;;;9.80;;
12373;SDS011;6251;51.762;8.660;2022-10-12T20:14:24;10.45;;;8.57;;
12373;SDS011;6251;51.762;8.660;2022-10-12T20:24:25;9.75;;;8.57;;
12373;SDS011;6251;51.762;8.660;2022-10-12T20:34:25;10.80;;;8.85;;
12373;SDS011;6251;51.762;8.660;2022-10-12T20:44:37;10.27;;;7.93;;
12373;SDS011;6251;51.762;8.660;2022-10-12T21:04:57;12.25;;;8.05;;
12373;SDS011;6251;51.762;8.660;2022-10-12T21:14:57;10.38;;;8.20;;
